Time;durP1;ratioP1;P1;durP2;ratioP2;P2;SDS_P1;SDS_P2;PMS_P1;PMS_P2;Temp;Humidity;BMP_temperature;BMP_pressure;BME280_temperature;BME280_humidity;BME280_pressure;Samples;Min_cycle;Max_cycle;Signal;HPM_P1;HPM_P2
2024/01/30 00:01:31;;;;;;;26.88;8.70;;;;;;;;;;5839739;28;20050;-76
2024/01/30 00:04:22;;;;;;;30.77;8.82;;;;;;;;;;5814902;28;20042;-76
2024/01/30 00:07:13;;;;;;;14.18;7.18;;;;;;;;;;5815159;28;20051;-76
2024/01/30 00:10:06;;;;;;;16.98;7.82;;;;;;;;;;5815135;28;20081;-76
2024/01/30 00:12:56;;;;;;;20.45;8.75;;;;;;;;;;5815554;28;20113;-76
2024/01/30 00:15:48;;;;;;;27.45;10.10;;;;;;;;;;5815121;28;20672;-76
2024/01/30 00:18:39;;;;;;;13.40;7.30;;;;;;;;;;5831197;28;20054;-76
2024/01/30 00:21:30;;;;;;;17.88;7.47;;;;;;;;;;5816279;28;20149;-76
2024/01/30 00:24:21;;;;;;;16.05;8.10;;;;;;;;;;5814808;28;20551;-76
2024/01/30 00:27:11;;;;;;;24.75;9.15;;;;;;;;;;5831256;28;20448;-76
2024/01/30 00:30:03;;;;;;;19.08;9.98;;;;;;;;;;5814693;28;20053;-76
2024/01/30 00:32:54;;;;;;;19.58;9.73;;;;;;;;;;5815205;28;20489;-76
2024/01/30 00:35:45;;;;;;;22.40;10.45;;;;;;;;;;5814820;28;20053;-75
2024/01/30 00:38:37;;;;;;;21.17;10.30;;;;;;;;;;5814813;28;20066;-76
2024/01/30 00:41:28;;;;;;;33.65;11.13;;;;;;;;;;5816121;28;20389;-76
2024/01/30 00:44:19;;;;;;;27.40;10.13;;;;;;;;;;5814553;28;20133;-76
2024/01/30 00:47:09;;;;;;;37.88;13.80;;;;;;;;;;5816169;28;20046;-76
2024/01/30 00:50:00;;;;;;;25.77;9.93;;;;;;;;;;5835389;28;20069;-75
2024/01/30 00:52:51;;;;;;;33.95;11.85;;;;;;;;;;5818956;28;20607;-75
2024/01/30 00:55:43;;;;;;;49.80;15.75;;;;;;;;;;5818611;28;20047;-75
2024/01/30 00:58:34;;;;;;;17.10;8.25;;;;;;;;;;5834690;28;20424;-76
2024/01/30 01:01:25;;;;;;;36.30;13.02;;;;;;;;;;5823444;28;20582;-76
2024/01/30 01:04:17;;;;;;;26.50;12.13;;;;;;;;;;5859498;28;20046;-76
2024/01/30 01:07:08;;;;;;;20.83;8.35;;;;;;;;;;5865584;28;20049;-76
2024/01/30 01:09:59;;;;;;;26.10;10.15;;;;;;;;;;5881126;28;20503;-76
2024/01/30 01:12:50;;;;;;;17.95;8.10;;;;;;;;;;5842501;28;20049;-76
2024/01/30 01:15:41;;;;;;;17.30;8.13;;;;;;;;;;5842491;28;20054;-76
2024/01/30 01:18:31;;;;;;;24.77;9.65;;;;;;;;;;5842419;28;20566;-75
2024/01/30 01:21:23;;;;;;;20.92;9.07;;;;;;;;;;5841037;28;20057;-76
2024/01/30 01:24:13;;;;;;;23.00;11.57;;;;;;;;;;5824800;28;20053;-76
2024/01/30 01:27:05;;;;;;;23.52;11.15;;;;;;;;;;5824769;28;20042;-76
2024/01/30 01:29:56;;;;;;;22.65;10.45;;;;;;;;;;5841436;28;20060;-76
2024/01/30 01:33:00;;;;;;;26.38;9.52;;;;;;;;;;5842171;28;20052;-75
2024/01/30 01:35:52;;;;;;;23.42;10.35;;;;;;;;;;5841145;28;20042;-76
2024/01/30 01:38:42;;;;;;;26.52;10.07;;;;;;;;;;5842001;28;20053;-76
2024/01/30 01:41:33;;;;;;;13.00;9.38;;;;;;;;;;5824452;28;20046;-76
2024/01/30 01:44:24;;;;;;;29.65;13.63;;;;;;;;;;5840542;28;20088;-76
2024/01/30 01:47:15;;;;;;;20.13;7.97;;;;;;;;;;5840389;28;20408;-76
2024/01/30 01:50:06;;;;;;;20.23;10.50;;;;;;;;;;5840115;28;20053;-76
2024/01/30 01:52:58;;;;;;;18.38;7.55;;;;;;;;;;5840790;28;20054;-75
2024/01/30 01:55:49;;;;;;;27.35;10.88;;;;;;;;;;5840205;28;20041;-76
2024/01/30 01:58:41;;;;;;;25.75;9.85;;;;;;;;;;5839463;28;20124;-76
2024/01/30 02:01:33;;;;;;;21.90;10.27;;;;;;;;;;5839859;28;20402;-76
2024/01/30 02:04:24;;;;;;;21.95;10.25;;;;;;;;;;5841463;28;20041;-76
2024/01/30 02:07:15;;;;;;;31.73;11.75;;;;;;;;;;5841359;28;20567;-76
2024/01/30 02:10:09;;;;;;;14.77;9.57;;;;;;;;;;5847161;28;20076;-76
2024/01/30 02:13:00;;;;;;;18.52;9.18;;;;;;;;;;5840366;28;20045;-76
2024/01/30 02:15:51;;;;;;;24.00;10.13;;;;;;;;;;5840087;28;20041;-76
2024/01/30 02:18:45;;;;;;;26.10;10.63;;;;;;;;;;5823478;28;20049;-76
2024/01/30 02:21:36;;;;;;;25.23;11.85;;;;;;;;;;5840021;28;20042;-76
2024/01/30 02:24:27;;;;;;;23.13;8.60;;;;;;;;;;5823493;28;20132;-76
2024/01/30 02:27:17;;;;;;;22.17;11.95;;;;;;;;;;5840655;28;20526;-76
2024/01/30 02:30:09;;;;;;;28.58;10.88;;;;;;;;;;5840676;28;20419;-75
2024/01/30 02:33:00;;;;;;;21.13;9.38;;;;;;;;;;5839852;28;20050;-76
2024/01/30 02:35:51;;;;;;;24.13;9.70;;;;;;;;;;5846469;28;20049;-75
2024/01/30 02:38:41;;;;;;;31.25;10.68;;;;;;;;;;5862172;28;20051;-76
2024/01/30 02:41:32;;;;;;;23.17;9.63;;;;;;;;;;5846148;28;20049;-75
2024/01/30 02:44:23;;;;;;;23.23;10.35;;;;;;;;;;5878630;28;20045;-75
2024/01/30 02:47:14;;;;;;;21.17;10.02;;;;;;;;;;5845567;28;20041;-76
2024/01/30 02:50:05;;;;;;;21.42;10.35;;;;;;;;;;5862042;28;20046;-76
2024/01/30 02:52:56;;;;;;;14.90;9.07;;;;;;;;;;5862562;28;20431;-75
2024/01/30 02:55:47;;;;;;;21.13;10.95;;;;;;;;;;5861888;28;20415;-75
2024/01/30 02:58:38;;;;;;;14.57;7.68;;;;;;;;;;5861934;28;20144;-75
2024/01/30 03:01:28;;;;;;;34.05;13.13;;;;;;;;;;5862592;28;20724;-75
2024/01/30 03:04:19;;;;;;;23.27;11.02;;;;;;;;;;5861740;28;20460;-76
2024/01/30 03:07:10;;;;;;;25.00;10.23;;;;;;;;;;5862731;28;20056;-76
2024/01/30 03:10:01;;;;;;;27.38;9.02;;;;;;;;;;5860940;28;20049;-76
2024/01/30 03:12:52;;;;;;;41.40;12.10;;;;;;;;;;5861807;28;20045;-76
2024/01/30 03:15:43;;;;;;;21.33;8.68;;;;;;;;;;5862792;28;20128;-76
2024/01/30 03:18:33;;;;;;;21.23;8.90;;;;;;;;;;5862827;28;20052;-76
2024/01/30 03:21:24;;;;;;;26.30;10.13;;;;;;;;;;5861468;28;20053;-76
2024/01/30 03:24:15;;;;;;;17.33;7.93;;;;;;;;;;5861327;28;20049;-76
2024/01/30 03:27:06;;;;;;;15.80;8.52;;;;;;;;;;5861459;28;20054;-76
2024/01/30 03:29:56;;;;;;;20.92;8.98;;;;;;;;;;5862796;28;20049;-75
2024/01/30 03:32:47;;;;;;;20.67;7.40;;;;;;;;;;5861161;28;20041;-75
2024/01/30 03:35:38;;;;;;;26.45;10.45;;;;;;;;;;5861159;28;20037;-76
2024/01/30 03:38:29;;;;;;;12.32;8.52;;;;;;;;;;5877661;28;20038;-76
2024/01/30 03:41:20;;;;;;;24.50;10.98;;;;;;;;;;5862380;28;20427;-76
2024/01/30 03:44:11;;;;;;;19.73;10.45;;;;;;;;;;5860947;28;20053;-75
2024/01/30 03:47:02;;;;;;;21.50;9.05;;;;;;;;;;5877581;28;20052;-76
2024/01/30 03:49:53;;;;;;;21.98;8.85;;;;;;;;;;5862887;28;20046;-76
2024/01/30 03:52:43;;;;;;;20.15;8.13;;;;;;;;;;5860638;28;20159;-75
2024/01/30 03:55:34;;;;;;;20.58;8.13;;;;;;;;;;5862444;28;20045;-76
2024/01/30 03:58:25;;;;;;;28.85;10.05;;;;;;;;;;5844332;28;20049;-76
2024/01/30 04:01:16;;;;;;;16.48;8.85;;;;;;;;;;5860778;28;20072;-76
2024/01/30 04:04:07;;;;;;;22.15;9.48;;;;;;;;;;5860838;28;20048;-76
2024/01/30 04:06:58;;;;;;;25.73;9.93;;;;;;;;;;5861135;28;20065;-75
2024/01/30 04:09:49;;;;;;;20.52;9.02;;;;;;;;;;5844265;28;20068;-76
2024/01/30 04:12:39;;;;;;;22.35;9.38;;;;;;;;;;5860645;28;20391;-75
2024/01/30 04:15:30;;;;;;;30.90;10.40;;;;;;;;;;5860431;28;20068;-76
2024/01/30 04:18:21;;;;;;;22.55;8.65;;;;;;;;;;5860592;28;20458;-76
2024/01/30 04:21:12;;;;;;;28.02;9.20;;;;;;;;;;5860579;28;20396;-76
2024/01/30 04:24:03;;;;;;;14.35;8.77;;;;;;;;;;5863832;28;20053;-76
2024/01/30 04:26:53;;;;;;;18.95;8.82;;;;;;;;;;5867027;28;20052;-75
2024/01/30 04:29:44;;;;;;;18.38;8.82;;;;;;;;;;5866029;28;20415;-75
2024/01/30 04:32:36;;;;;;;18.08;8.07;;;;;;;;;;5864769;28;20514;-76
2024/01/30 04:35:27;;;;;;;16.98;8.80;;;;;;;;;;5864896;28;20045;-76
2024/01/30 04:38:18;;;;;;;17.90;7.82;;;;;;;;;;5848559;28;20500;-75
2024/01/30 04:41:08;;;;;;;18.48;7.32;;;;;;;;;;5866111;28;20415;-76
2024/01/30 04:43:59;;;;;;;25.80;10.77;;;;;;;;;;5865174;28;20068;-76
2024/01/30 04:46:50;;;;;;;17.83;10.02;;;;;;;;;;5864881;28;20072;-75
2024/01/30 04:49:41;;;;;;;25.02;10.55;;;;;;;;;;5864580;28;20057;-75
2024/01/30 04:52:32;;;;;;;18.95;8.75;;;;;;;;;;5865879;28;20509;-75
2024/01/30 04:55:23;;;;;;;21.27;9.35;;;;;;;;;;5864613;28;20045;-76
2024/01/30 04:58:14;;;;;;;19.75;10.10;;;;;;;;;;5864447;28;20051;-76
2024/01/30 05:01:05;;;;;;;22.75;8.82;;;;;;;;;;5864193;28;20052;-75
2024/01/30 05:03:56;;;;;;;27.17;9.93;;;;;;;;;;5865020;28;20396;-75
2024/01/30 05:06:47;;;;;;;20.48;8.07;;;;;;;;;;5864436;28;20416;-75
2024/01/30 05:09:37;;;;;;;23.48;8.15;;;;;;;;;;5864245;28;20075;-75
2024/01/30 05:12:28;;;;;;;19.98;9.15;;;;;;;;;;5847669;28;20075;-75
2024/01/30 05:15:19;;;;;;;20.50;9.43;;;;;;;;;;5880566;28;20060;-75
2024/01/30 05:18:10;;;;;;;24.90;10.07;;;;;;;;;;5847428;28;20047;-76
2024/01/30 05:21:03;;;;;;;26.05;7.63;;;;;;;;;;5863804;28;20053;-76
2024/01/30 05:23:54;;;;;;;16.08;7.13;;;;;;;;;;5865489;28;20056;-75
2024/01/30 05:26:44;;;;;;;16.65;8.43;;;;;;;;;;5847286;28;20049;-75
2024/01/30 05:29:35;;;;;;;19.73;8.48;;;;;;;;;;5847210;28;20053;-75
2024/01/30 05:32:26;;;;;;;14.63;8.95;;;;;;;;;;5863346;28;20049;-75
2024/01/30 05:35:17;;;;;;;24.08;9.20;;;;;;;;;;5864663;28;20055;-75
2024/01/30 05:38:08;;;;;;;24.42;10.07;;;;;;;;;;5863505;28;20518;-75
2024/01/30 05:40:58;;;;;;;18.10;9.18;;;;;;;;;;5864150;28;20049;-75
2024/01/30 05:43:49;;;;;;;16.52;8.30;;;;;;;;;;5865062;28;20049;-75
2024/01/30 05:46:40;;;;;;;14.13;8.13;;;;;;;;;;5863587;28;20053;-75
2024/01/30 05:49:31;;;;;;;21.77;7.25;;;;;;;;;;5863059;28;20056;-75
2024/01/30 05:52:22;;;;;;;20.45;9.20;;;;;;;;;;5862979;28;20053;-75
2024/01/30 05:55:13;;;;;;;14.55;6.57;;;;;;;;;;5862931;28;20100;-75
2024/01/30 05:58:04;;;;;;;24.40;8.52;;;;;;;;;;5879421;28;20056;-76
2024/01/30 06:00:55;;;;;;;28.35;6.88;;;;;;;;;;5863399;28;20045;-75
2024/01/30 06:03:46;;;;;;;27.80;9.23;;;;;;;;;;5862842;28;20440;-75
2024/01/30 06:06:36;;;;;;;19.92;8.82;;;;;;;;;;5825617;28;20120;-75
2024/01/30 06:09:28;;;;;;;8.48;5.57;;;;;;;;;;5839724;28;20107;-76
2024/01/30 06:12:19;;;;;;;19.55;7.22;;;;;;;;;;5839728;28;20049;-76
2024/01/30 06:15:12;;;;;;;18.15;7.10;;;;;;;;;;5839897;28;20046;-75
2024/01/30 06:18:03;;;;;;;15.95;6.90;;;;;;;;;;5823790;28;20054;-76
2024/01/30 06:20:54;;;;;;;9.10;6.68;;;;;;;;;;5841406;28;20065;-75
2024/01/30 06:23:45;;;;;;;13.55;5.90;;;;;;;;;;5839567;28;20050;-75
2024/01/30 06:26:36;;;;;;;26.33;8.00;;;;;;;;;;5839725;28;20042;-75
2024/01/30 06:29:27;;;;;;;13.95;6.30;;;;;;;;;;5840926;28;20388;-75
2024/01/30 06:32:17;;;;;;;17.95;6.25;;;;;;;;;;5842723;28;20050;-75
2024/01/30 06:35:10;;;;;;;15.10;7.93;;;;;;;;;;5839399;28;20057;-75
2024/01/30 06:38:01;;;;;;;15.73;7.75;;;;;;;;;;5839197;28;20050;-76
2024/01/30 06:40:51;;;;;;;20.00;5.70;;;;;;;;;;5841542;28;20046;-75
2024/01/30 06:43:44;;;;;;;12.55;6.63;;;;;;;;;;5839250;28;20499;-75
2024/01/30 06:46:35;;;;;;;14.70;6.93;;;;;;;;;;5822921;28;20046;-75
2024/01/30 06:49:26;;;;;;;12.43;6.05;;;;;;;;;;5840267;28;20056;-75
2024/01/30 06:52:17;;;;;;;13.00;5.97;;;;;;;;;;5838775;28;20519;-75
2024/01/30 06:55:09;;;;;;;15.23;7.43;;;;;;;;;;5840377;28;20057;-75
2024/01/30 06:58:00;;;;;;;9.43;5.82;;;;;;;;;;5855695;28;20076;-75
2024/01/30 07:00:51;;;;;;;13.90;6.07;;;;;;;;;;5839024;28;20056;-75
2024/01/30 07:03:42;;;;;;;21.75;7.45;;;;;;;;;;5838580;28;20124;-75
2024/01/30 07:06:33;;;;;;;16.98;7.88;;;;;;;;;;5822425;28;20480;-76
2024/01/30 07:09:24;;;;;;;14.93;6.57;;;;;;;;;;5838371;28;20048;-76
2024/01/30 07:12:15;;;;;;;11.32;6.88;;;;;;;;;;5838560;28;20424;-76
2024/01/30 07:15:08;;;;;;;12.23;5.82;;;;;;;;;;5839931;28;20052;-76
2024/01/30 07:17:59;;;;;;;23.40;7.03;;;;;;;;;;5838850;28;20145;-75
2024/01/30 07:20:50;;;;;;;10.88;5.95;;;;;;;;;;5838361;28;20050;-76
2024/01/30 07:23:41;;;;;;;15.38;6.75;;;;;;;;;;5838152;28;20423;-76
2024/01/30 07:26:32;;;;;;;7.43;4.85;;;;;;;;;;5837822;28;20045;-76
2024/01/30 07:29:23;;;;;;;26.35;7.00;;;;;;;;;;5838018;28;20154;-76
2024/01/30 07:32:14;;;;;;;20.35;6.70;;;;;;;;;;5839388;28;20038;-76
2024/01/30 07:35:05;;;;;;;8.40;5.00;;;;;;;;;;5839403;28;20125;-77
2024/01/30 07:37:59;;;;;;;16.83;6.00;;;;;;;;;;5839774;28;20054;-77
2024/01/30 07:40:49;;;;;;;17.67;7.95;;;;;;;;;;5854285;28;20038;-77
2024/01/30 07:43:40;;;;;;;22.42;10.45;;;;;;;;;;5838006;28;20045;-77
2024/01/30 07:46:31;;;;;;;15.07;8.75;;;;;;;;;;5837783;28;20053;-77
2024/01/30 07:49:22;;;;;;;25.80;11.70;;;;;;;;;;5821498;28;20096;-77
2024/01/30 07:52:13;;;;;;;24.05;11.43;;;;;;;;;;5837883;28;20452;-77
2024/01/30 07:55:04;;;;;;;19.42;10.50;;;;;;;;;;5838377;28;20052;-78
2024/01/30 07:57:55;;;;;;;22.52;12.35;;;;;;;;;;5862946;28;20418;-77
2024/01/30 08:00:46;;;;;;;18.77;11.25;;;;;;;;;;5865808;28;20053;-77
2024/01/30 08:03:39;;;;;;;17.88;9.50;;;;;;;;;;5866926;28;20038;-77
2024/01/30 08:06:30;;;;;;;27.27;12.75;;;;;;;;;;5865965;28;20064;-77
2024/01/30 08:09:21;;;;;;;25.60;11.93;;;;;;;;;;5861247;28;20053;-77
2024/01/30 08:12:12;;;;;;;16.55;8.40;;;;;;;;;;5866678;28;20109;-77
2024/01/30 08:15:04;;;;;;;17.95;10.38;;;;;;;;;;5865508;28;20068;-78
2024/01/30 08:17:57;;;;;;;18.27;7.25;;;;;;;;;;5865704;28;20045;-77
2024/01/30 08:20:49;;;;;;;12.93;6.70;;;;;;;;;;5866373;28;20045;-77
2024/01/30 08:23:39;;;;;;;13.30;7.43;;;;;;;;;;5864966;28;20551;-77
2024/01/30 08:26:32;;;;;;;23.75;9.63;;;;;;;;;;5865145;28;20056;-77
2024/01/30 08:29:23;;;;;;;32.22;10.82;;;;;;;;;;5866148;28;20045;-77
2024/01/30 08:32:14;;;;;;;19.67;10.02;;;;;;;;;;5864874;28;20114;-77
2024/01/30 08:35:06;;;;;;;24.13;11.30;;;;;;;;;;5881455;28;20057;-77
2024/01/30 08:37:57;;;;;;;22.50;10.65;;;;;;;;;;5865353;28;20049;-77
2024/01/30 08:40:48;;;;;;;20.00;10.45;;;;;;;;;;5866231;28;20069;-77
2024/01/30 08:43:39;;;;;;;22.48;10.63;;;;;;;;;;5865072;28;20059;-77
2024/01/30 08:46:30;;;;;;;13.88;9.80;;;;;;;;;;5864792;28;20125;-77
2024/01/30 08:49:21;;;;;;;19.17;10.10;;;;;;;;;;5864522;28;20054;-77
2024/01/30 08:52:13;;;;;;;22.75;10.73;;;;;;;;;;5864516;28;20041;-77
2024/01/30 08:55:04;;;;;;;15.45;8.48;;;;;;;;;;5881204;28;20053;-77
2024/01/30 08:57:56;;;;;;;25.25;12.00;;;;;;;;;;5866433;28;20049;-78
2024/01/30 09:00:47;;;;;;;16.10;7.82;;;;;;;;;;5881470;28;20057;-78
2024/01/30 09:03:40;;;;;;;13.13;5.97;;;;;;;;;;5880905;28;20407;-78
2024/01/30 09:06:31;;;;;;;7.53;5.35;;;;;;;;;;5880742;28;20148;-78
2024/01/30 09:09:22;;;;;;;12.55;6.30;;;;;;;;;;5863946;28;20056;-78
2024/01/30 09:12:12;;;;;;;12.25;6.30;;;;;;;;;;5864338;28;20049;-78
2024/01/30 09:15:04;;;;;;;11.90;5.60;;;;;;;;;;5864284;28;20060;-78
2024/01/30 09:17:55;;;;;;;8.57;4.13;;;;;;;;;;5865769;28;20052;-78
2024/01/30 09:20:47;;;;;;;12.20;5.43;;;;;;;;;;5865440;28;20065;-78
2024/01/30 09:23:38;;;;;;;10.63;7.80;;;;;;;;;;5864124;28;20045;-78
2024/01/30 09:26:28;;;;;;;15.05;6.47;;;;;;;;;;5864090;28;20049;-78
2024/01/30 09:29:19;;;;;;;13.02;7.30;;;;;;;;;;5864090;28;20391;-78
2024/01/30 09:32:10;;;;;;;10.63;6.53;;;;;;;;;;5863825;28;20415;-78
2024/01/30 09:35:01;;;;;;;11.85;7.47;;;;;;;;;;5863973;28;20053;-78
2024/01/30 09:37:52;;;;;;;10.23;5.63;;;;;;;;;;5880747;28;20052;-78
2024/01/30 09:40:44;;;;;;;12.98;7.25;;;;;;;;;;5863770;28;20041;-78
2024/01/30 09:43:35;;;;;;;10.13;7.45;;;;;;;;;;5880133;28;20049;-78
2024/01/30 09:46:28;;;;;;;10.18;4.90;;;;;;;;;;5863817;28;20049;-78
2024/01/30 09:49:21;;;;;;;5.50;4.50;;;;;;;;;;5863741;28;20049;-78
2024/01/30 09:52:12;;;;;;;12.57;6.20;;;;;;;;;;5863621;28;20041;-78
2024/01/30 09:55:05;;;;;;;7.07;5.32;;;;;;;;;;5864922;28;20393;-78
2024/01/30 09:57:55;;;;;;;10.85;4.68;;;;;;;;;;5863736;28;20145;-78
2024/01/30 10:00:46;;;;;;;39.10;22.90;;;;;;;;;;5863400;28;20071;-78
2024/01/30 10:03:37;;;;;;;22.20;10.57;;;;;;;;;;5863190;28;20073;-78
2024/01/30 10:06:29;;;;;;;21.17;12.05;;;;;;;;;;5879785;28;20045;-78
2024/01/30 10:09:21;;;;;;;8.23;6.68;;;;;;;;;;5862857;28;20064;-77
2024/01/30 10:12:13;;;;;;;7.55;6.70;;;;;;;;;;5864081;28;20056;-77
2024/01/30 10:15:08;;;;;;;15.38;8.13;;;;;;;;;;5863043;28;20080;-77
2024/01/30 10:17:58;;;;;;;18.75;12.40;;;;;;;;;;5863383;28;20136;-77
2024/01/30 10:20:49;;;;;;;10.95;8.23;;;;;;;;;;5861843;28;20120;-77
2024/01/30 10:23:40;;;;;;;15.35;6.75;;;;;;;;;;5862814;28;20041;-77
2024/01/30 10:26:34;;;;;;;15.02;5.22;;;;;;;;;;5862655;28;20059;-77
2024/01/30 10:29:24;;;;;;;11.27;7.07;;;;;;;;;;5863925;28;20049;-77
2024/01/30 10:32:16;;;;;;;11.50;7.47;;;;;;;;;;5863477;28;20124;-77
2024/01/30 10:35:08;;;;;;;12.23;7.47;;;;;;;;;;5862506;28;20510;-77
2024/01/30 10:37:59;;;;;;;14.55;9.73;;;;;;;;;;5862682;28;20049;-77
2024/01/30 10:40:55;;;;;;;8.85;5.35;;;;;;;;;;5862611;28;20415;-77
2024/01/30 10:44:03;;;;;;;10.85;4.45;;;;;;;;;;5862887;28;20118;-77
2024/01/30 10:47:02;;;;;;;9.05;5.65;;;;;;;;;;5862582;28;20389;-77
2024/01/30 10:49:55;;;;;;;14.07;6.10;;;;;;;;;;5878242;28;20060;-77
2024/01/30 10:52:47;;;;;;;7.80;4.07;;;;;;;;;;5861949;28;20392;-77
2024/01/30 10:55:39;;;;;;;10.90;5.38;;;;;;;;;;5861985;28;20411;-76
2024/01/30 10:58:30;;;;;;;8.23;5.90;;;;;;;;;;5862021;28;20139;-77
2024/01/30 11:01:23;;;;;;;17.05;7.57;;;;;;;;;;5863263;28;20049;-77
2024/01/30 11:04:14;;;;;;;7.20;4.80;;;;;;;;;;5878019;28;20049;-76
2024/01/30 11:07:20;;;;;;;11.68;6.97;;;;;;;;;;5878152;28;20092;-76
2024/01/30 11:10:14;;;;;;;10.45;4.25;;;;;;;;;;5877778;28;20048;-76
2024/01/30 11:13:13;;;;;;;8.07;4.97;;;;;;;;;;5861725;28;20041;-76
2024/01/30 11:16:05;;;;;;;9.45;4.72;;;;;;;;;;5861912;28;20543;-76
2024/01/30 11:19:02;;;;;;;6.35;4.30;;;;;;;;;;5862007;28;20045;-76
2024/01/30 11:21:54;;;;;;;10.43;4.90;;;;;;;;;;5878150;28;20045;-76
2024/01/30 11:24:47;;;;;;;6.75;4.63;;;;;;;;;;5861412;28;20049;-76
2024/01/30 11:27:39;;;;;;;10.45;4.85;;;;;;;;;;5823729;28;20042;-77
2024/01/30 11:30:32;;;;;;;6.13;4.22;;;;;;;;;;5838465;28;20100;-76
2024/01/30 11:33:30;;;;;;;4.28;3.58;;;;;;;;;;5838120;28;20120;-76
2024/01/30 11:36:29;;;;;;;8.48;5.05;;;;;;;;;;5838098;28;20100;-76
2024/01/30 11:39:20;;;;;;;10.30;5.32;;;;;;;;;;5854071;28;20054;-76
2024/01/30 11:42:12;;;;;;;7.90;5.07;;;;;;;;;;5837993;28;20135;-76
2024/01/30 11:45:03;;;;;;;7.60;3.50;;;;;;;;;;5838141;28;20049;-76
2024/01/30 11:47:55;;;;;;;9.45;4.72;;;;;;;;;;5839994;28;20127;-76
2024/01/30 11:50:46;;;;;;;11.82;5.00;;;;;;;;;;5854212;28;20522;-77
2024/01/30 11:53:37;;;;;;;5.80;4.53;;;;;;;;;;5838024;28;20060;-76
2024/01/30 11:56:28;;;;;;;7.07;4.18;;;;;;;;;;5837840;28;20053;-76
2024/01/30 11:59:19;;;;;;;4.10;3.25;;;;;;;;;;5837807;28;20049;-77
2024/01/30 12:02:16;;;;;;;6.10;5.50;;;;;;;;;;5837642;28;20053;-76
2024/01/30 12:05:09;;;;;;;13.45;7.45;;;;;;;;;;5853964;28;20050;-77
2024/01/30 12:07:59;;;;;;;11.10;6.13;;;;;;;;;;5839449;28;20400;-77
2024/01/30 12:10:58;;;;;;;7.40;4.80;;;;;;;;;;5837966;28;20042;-77
2024/01/30 12:13:50;;;;;;;23.60;10.52;;;;;;;;;;5837602;28;20038;-77
2024/01/30 12:16:41;;;;;;;9.38;7.00;;;;;;;;;;5837885;28;20868;-76
2024/01/30 12:19:32;;;;;;;12.93;6.65;;;;;;;;;;5837508;28;20046;-77
2024/01/30 12:22:23;;;;;;;13.88;7.03;;;;;;;;;;5837698;28;20101;-77
2024/01/30 12:25:17;;;;;;;12.57;7.82;;;;;;;;;;5837654;28;20463;-77
2024/01/30 12:28:08;;;;;;;22.75;11.68;;;;;;;;;;5837540;28;20057;-77
2024/01/30 12:31:03;;;;;;;17.23;6.05;;;;;;;;;;5837954;28;20105;-77
2024/01/30 12:33:55;;;;;;;10.32;4.75;;;;;;;;;;5838891;28;20128;-77
2024/01/30 12:36:49;;;;;;;6.40;5.50;;;;;;;;;;5837626;28;20049;-76
2024/01/30 12:39:40;;;;;;;6.68;5.78;;;;;;;;;;5837295;28;20042;-77
2024/01/30 12:42:31;;;;;;;7.22;5.22;;;;;;;;;;5837442;28;20057;-77
2024/01/30 12:45:22;;;;;;;10.13;5.10;;;;;;;;;;5840997;28;20404;-77
2024/01/30 12:48:15;;;;;;;6.45;4.15;;;;;;;;;;5841501;28;20046;-77
2024/01/30 12:51:06;;;;;;;8.80;4.65;;;;;;;;;;5842840;28;20128;-77
2024/01/30 12:53:57;;;;;;;7.68;4.88;;;;;;;;;;5843378;28;20136;-77
2024/01/30 12:56:48;;;;;;;14.80;9.32;;;;;;;;;;5841357;28;20045;-77
2024/01/30 12:59:39;;;;;;;13.30;9.68;;;;;;;;;;5825190;28;20057;-77
2024/01/30 13:02:34;;;;;;;8.88;4.93;;;;;;;;;;5840930;28;20053;-76
2024/01/30 13:05:25;;;;;;;6.93;4.28;;;;;;;;;;5825742;28;20046;-77
2024/01/30 13:08:16;;;;;;;5.88;3.85;;;;;;;;;;5841014;28;20056;-77
2024/01/30 13:11:07;;;;;;;7.63;5.20;;;;;;;;;;5857334;28;20053;-76
2024/01/30 13:14:07;;;;;;;13.57;4.82;;;;;;;;;;5831060;28;20468;-76
2024/01/30 13:16:59;;;;;;;14.50;6.47;;;;;;;;;;5862187;28;20053;-76
2024/01/30 13:19:49;;;;;;;10.02;5.13;;;;;;;;;;5855963;28;20132;-76
2024/01/30 13:22:40;;;;;;;6.45;4.22;;;;;;;;;;5848704;28;20123;-76
2024/01/30 13:25:31;;;;;;;15.27;5.40;;;;;;;;;;5863917;28;20098;-76
2024/01/30 13:28:22;;;;;;;12.43;5.60;;;;;;;;;;5852938;28;20095;-77
2024/01/30 13:31:15;;;;;;;10.18;4.60;;;;;;;;;;5840844;28;20050;-77
2024/01/30 13:34:08;;;;;;;7.47;4.80;;;;;;;;;;5858575;28;20050;-76
2024/01/30 13:36:59;;;;;;;7.82;4.40;;;;;;;;;;5863743;28;20041;-76
2024/01/30 13:39:50;;;;;;;4.57;3.65;;;;;;;;;;5864221;28;20419;-77
2024/01/30 13:42:41;;;;;;;6.03;3.67;;;;;;;;;;5864193;28;20514;-77
2024/01/30 13:45:32;;;;;;;11.13;5.00;;;;;;;;;;5847487;28;20045;-77
2024/01/30 13:48:23;;;;;;;15.85;5.43;;;;;;;;;;5863464;28;20419;-77
2024/01/30 13:51:14;;;;;;;10.07;5.40;;;;;;;;;;5863685;28;20049;-77
2024/01/30 13:54:04;;;;;;;4.90;3.63;;;;;;;;;;5846883;28;20407;-77
2024/01/30 13:56:55;;;;;;;9.93;5.18;;;;;;;;;;5863340;28;20049;-77
2024/01/30 13:59:46;;;;;;;8.30;4.60;;;;;;;;;;5863325;28;20052;-77
2024/01/30 14:02:38;;;;;;;8.35;4.80;;;;;;;;;;5863713;28;20048;-77
2024/01/30 14:05:29;;;;;;;8.98;5.50;;;;;;;;;;5863565;28;20492;-77
2024/01/30 14:08:23;;;;;;;9.10;4.60;;;;;;;;;;5846397;28;20057;-77
2024/01/30 14:11:14;;;;;;;11.43;4.88;;;;;;;;;;5862881;28;20061;-77
2024/01/30 14:14:05;;;;;;;9.80;5.35;;;;;;;;;;5862979;28;20068;-77
2024/01/30 14:16:56;;;;;;;6.72;4.15;;;;;;;;;;5847067;28;20068;-77
2024/01/30 14:19:46;;;;;;;12.20;4.28;;;;;;;;;;5862961;28;20045;-77
2024/01/30 14:22:37;;;;;;;20.13;5.80;;;;;;;;;;5862649;28;20088;-77
2024/01/30 14:25:28;;;;;;;13.55;5.35;;;;;;;;;;5862545;28;20045;-77
2024/01/30 14:28:19;;;;;;;5.32;3.30;;;;;;;;;;5862414;28;20041;-77
2024/01/30 14:31:09;;;;;;;6.55;3.13;;;;;;;;;;5862398;28;20128;-77
2024/01/30 14:34:00;;;;;;;5.85;4.50;;;;;;;;;;5846344;28;20046;-77
2024/01/30 14:36:51;;;;;;;8.27;4.57;;;;;;;;;;5846139;28;20052;-77
2024/01/30 14:39:42;;;;;;;7.65;4.38;;;;;;;;;;5862171;28;20176;-77
2024/01/30 14:42:33;;;;;;;6.30;4.35;;;;;;;;;;5863489;28;20049;-77
2024/01/30 14:45:24;;;;;;;7.55;4.28;;;;;;;;;;5862086;28;20045;-76
2024/01/30 14:48:15;;;;;;;12.88;7.88;;;;;;;;;;5845653;28;20045;-77
2024/01/30 14:51:06;;;;;;;9.98;7.13;;;;;;;;;;5861868;28;20053;-77
2024/01/30 14:53:57;;;;;;;6.15;4.63;;;;;;;;;;5863750;28;20071;-77
2024/01/30 14:56:48;;;;;;;9.23;5.55;;;;;;;;;;5861928;28;20364;-77
2024/01/30 14:59:38;;;;;;;7.53;5.03;;;;;;;;;;5861761;28;20053;-77
2024/01/30 15:02:29;;;;;;;11.15;3.97;;;;;;;;;;5861787;28;20518;-76
2024/01/30 15:05:20;;;;;;;5.45;4.38;;;;;;;;;;5861705;28;20045;-76
2024/01/30 15:08:11;;;;;;;3.10;2.50;;;;;;;;;;5860977;28;20037;-76
2024/01/30 15:11:04;;;;;;;2.40;2.13;;;;;;;;;;5861504;28;20464;-77
2024/01/30 15:13:55;;;;;;;6.53;3.95;;;;;;;;;;5878430;28;20049;-77
2024/01/30 15:16:46;;;;;;;4.93;4.25;;;;;;;;;;5861621;28;20042;-77
2024/01/30 15:19:37;;;;;;;6.82;3.60;;;;;;;;;;5862703;28;20054;-77
2024/01/30 15:22:27;;;;;;;2.78;2.58;;;;;;;;;;5861473;28;20517;-77
2024/01/30 15:25:18;;;;;;;2.28;2.08;;;;;;;;;;5862698;28;20416;-77
2024/01/30 15:28:10;;;;;;;5.55;3.15;;;;;;;;;;5845022;28;20049;-77
2024/01/30 15:31:01;;;;;;;3.63;2.17;;;;;;;;;;5862554;28;20452;-77
2024/01/30 15:33:52;;;;;;;5.90;2.85;;;;;;;;;;5861588;28;20045;-77
2024/01/30 15:36:42;;;;;;;6.70;3.35;;;;;;;;;;5862551;28;20586;-76
2024/01/30 15:39:33;;;;;;;3.03;2.78;;;;;;;;;;5862340;28;20050;-76
2024/01/30 15:42:24;;;;;;;14.20;4.90;;;;;;;;;;5844627;28;20053;-76
2024/01/30 15:45:15;;;;;;;5.00;4.03;;;;;;;;;;5862367;28;20499;-76
2024/01/30 15:48:06;;;;;;;5.13;3.75;;;;;;;;;;5862486;28;20075;-76
2024/01/30 15:50:57;;;;;;;24.92;6.35;;;;;;;;;;5845265;28;20049;-76
2024/01/30 15:53:48;;;;;;;6.07;4.35;;;;;;;;;;5844539;28;20042;-76
2024/01/30 15:56:39;;;;;;;10.38;5.13;;;;;;;;;;5844504;28;20056;-76
2024/01/30 15:59:30;;;;;;;7.07;4.53;;;;;;;;;;5860945;28;20495;-76
2024/01/30 16:02:21;;;;;;;12.32;6.90;;;;;;;;;;5844257;28;20059;-76
2024/01/30 16:05:12;;;;;;;10.90;6.13;;;;;;;;;;5862091;28;20128;-76
2024/01/30 16:08:03;;;;;;;16.33;4.97;;;;;;;;;;5861878;28;20055;-76
2024/01/30 16:10:54;;;;;;;11.60;6.72;;;;;;;;;;5844899;28;20052;-76
2024/01/30 16:13:45;;;;;;;12.55;6.25;;;;;;;;;;5861773;28;20041;-76
2024/01/30 16:16:36;;;;;;;13.20;6.32;;;;;;;;;;5861902;28;20047;-77
2024/01/30 16:19:28;;;;;;;10.20;5.60;;;;;;;;;;5863308;28;20045;-76
2024/01/30 16:22:19;;;;;;;20.73;7.35;;;;;;;;;;5849034;28;20045;-76
2024/01/30 16:25:11;;;;;;;9.32;6.25;;;;;;;;;;5866705;28;20064;-76
2024/01/30 16:28:02;;;;;;;18.90;8.63;;;;;;;;;;5848942;28;20049;-76
2024/01/30 16:30:53;;;;;;;16.95;8.45;;;;;;;;;;5865596;28;20048;-76
2024/01/30 16:33:44;;;;;;;33.25;13.65;;;;;;;;;;5865926;28;20052;-76
2024/01/30 16:36:35;;;;;;;20.10;11.93;;;;;;;;;;5865027;28;20120;-76
2024/01/30 16:39:26;;;;;;;19.25;11.55;;;;;;;;;;5864909;28;20148;-76
2024/01/30 16:42:17;;;;;;;28.02;10.70;;;;;;;;;;5864668;28;20052;-76
2024/01/30 16:45:08;;;;;;;16.67;9.80;;;;;;;;;;5864792;28;20048;-76
2024/01/30 16:47:58;;;;;;;22.27;12.95;;;;;;;;;;5866488;28;20049;-76
2024/01/30 16:50:49;;;;;;;28.75;14.23;;;;;;;;;;5864802;28;20037;-76
2024/01/30 16:53:40;;;;;;;28.30;15.45;;;;;;;;;;5864479;28;20037;-76